Statewide Weather Sensors

Route Weather Station Name Milepost Date / Time Surface Status Surface Temp Precip Intensity Wind Avg Wind Gust Dir Dewpoint Humidity Air Temp Visibility
I 25 Wyo Hill 3.52 Oct 07, 2022 03:14 pm     None None 2 mph 6 mph S 39.2°F 85% 44.6°F > 1/2 mi
I 25 Whitaker 28.1 Oct 07, 2022 03:14 pm Dry 62.1°F None None 3 mph 5 mph E 39.2°F 72% 46.4°F > 1/2 mi
I 25 Bear Creek 46.77 Oct 07, 2022 03:14 pm Dry 64.6°F None None 4 mph 7 mph N 39.2°F 72% 48.2°F > 1/2 mi
I 25 Bordeaux 70.8 Oct 07, 2022 03:14 pm Dry 73.0°F None None 1 mph 6 mph SW 41.0°F 69% 50.0°F > 1/2 mi
I 25 Coleman 98.7 Oct 07, 2022 03:14 pm Dry 73.8°F None None 4 mph 9 mph SE 41.0°F 63% 53.6°F > 1/2 mi
I 25 Platte/Converse County Line 119.9 Oct 07, 2022 03:14 pm Dry 77.2°F None None 2 mph 7 mph SE 41.0°F 43% 64.4°F < 1/4 mi
I 25 Deer Creek 164.2 Oct 07, 2022 03:14 pm Dry 85.3°F None None 3 mph 9 mph N 39.2°F 49% 57.2°F > 1/2 mi
I 25 Hat Six 181.67 Oct 07, 2022 03:14 pm N/A   None None 3 mph 8 mph NW 41.0°F 53% 57.2°F > 1/2 mi
I 25 F Street Hill 189.51 Oct 07, 2022 03:14 pm Dry 64.9°F None None 5 mph 8 mph E 39.2°F 53% 55.4°F > 1/2 mi
I 25 Twenty Mile Hill 207.2 Oct 07, 2022 03:14 pm     None None 23 mph 31 mph N 37.4°F 50% 55.4°F > 1/2 mi
I 25 Smokey Gap 228.58 Oct 07, 2022 03:14 pm Dry 75.6°F None None 2 mph 8 mph N 39.2°F 51% 57.2°F > 1/2 mi
I 25 Tisdale 238.87 Oct 07, 2022 03:15 pm Dry 78.3°F None None 2 mph 7 mph S 41.0°F 48% 60.8°F > 1/2 mi
I 25 I-25 Divide 267.3 Oct 07, 2022 03:18 am                      
I 80 Evanston POE .06 Oct 07, 2022 03:14 pm N/A 158.0°F None None 6 mph 16 mph N 26.6°F 24% 64.4°F > 1/2 mi
I 80 Evanston 4.2 Oct 07, 2022 03:14 pm N/A   None None 6 mph 16 mph NW 30.2°F 25% 68.0°F > 1/2 mi
I 80 Bear River Drive 6.94 Aug 18, 2022 05:58 am                      
I 80 Painter 10.16 Oct 07, 2022 03:14 pm Dry 84.2°F None None 5 mph 17 mph NW 23.0°F 18% 68.0°F > 1/2 mi
I 80 First Divide 13.86 Oct 07, 2022 03:14 pm Dry 92.1°F None None 13 mph 21 mph W 17.6°F 16% 64.4°F > 1/2 mi
I 80 US 189 Interchange 17.66 Oct 07, 2022 03:14 pm Dry 83.1°F None None 7 mph 13 mph E 30.2°F 26% 66.2°F > 1/2 mi
I 80 Coal Road 20.95 Oct 07, 2022 03:14 pm Dry 89.2°F None None 6 mph 10 mph E 28.4°F 27% 62.6°F > 1/2 mi
I 80 Leroy 23.35 Oct 07, 2022 03:14 pm Dry 87.4°F None None 9 mph 13 mph NE 30.2°F 27% 64.4°F > 1/2 mi
I 80 French 27.6 Oct 07, 2022 03:14 pm Dry 86.4°F None None 3 mph 11 mph NE 30.2°F 26% 66.2°F > 1/2 mi
I 80 Church Butte 52.65 Oct 07, 2022 03:14 pm Dry 94.1°F None None 4 mph 7 mph NW 30.2°F 25% 66.2°F > 1/2 mi
I 80 Peru Hill 82.31 Oct 07, 2022 03:14 pm Dry 93.6°F None None 1 mph 9 mph SW 35.6°F 32% 64.4°F > 1/2 mi
I 80 Green River Tunnel 90.5 Oct 07, 2022 03:14 pm Dry 87.3°F None None 4 mph 6 mph SE 33.8°F 31% 64.4°F > 1/2 mi
I 80 Rock Springs West 97.9 Oct 07, 2022 03:14 pm N/A   None None 2 mph 6 mph S 39.2°F 42% 62.6°F > 1/2 mi
I 80 Baxter Road 111.5 Oct 07, 2022 03:14 pm     None None 5 mph 9 mph NE 35.6°F 38% 62.6°F > 1/2 mi
I 80 Mile Marker 124.5 124.5 Oct 07, 2022 03:14 pm Dry 89.2°F None None 6 mph 11 mph E 37.4°F 42% 60.8°F > 1/2 mi
I 80 Point of Rocks 129.8 Oct 07, 2022 03:14 pm Dry 85.8°F None None 4 mph 7 mph S 41.0°F 48% 60.8°F > 1/2 mi
I 80 Black Butte 134.91 Oct 07, 2022 03:14 pm Dry 69.4°F None None 2 mph 7 mph SW 37.4°F 44% 59.0°F > 1/2 mi
I 80 Bitter Creek 141.83 Oct 07, 2022 03:14 pm Dry 76.6°F None None 4 mph 9 mph NE 35.6°F 45% 57.2°F > 1/2 mi
I 80 Tipton 156.72 Oct 07, 2022 03:14 pm Dry 81.7°F None None 0 mph 0 mph NW 35.6°F 42% 59.0°F > 1/2 mi
I 80 Continental Divide 184.3 Oct 07, 2022 03:14 pm Dry 83.3°F None None 10 mph 13 mph N 37.4°F 43% 59.0°F > 1/2 mi
I 80 Sinclair 221.7 Oct 07, 2022 03:14 pm Dry 73.4°F None None 6 mph 11 mph NW 33.8°F 39% 59.0°F > 1/2 mi
I 80 Walcott Junction 234.66 Oct 07, 2022 03:14 pm Dry 88.3°F None None 6 mph 12 mph NW 33.8°F 39% 59.0°F > 1/2 mi
I 80 Dana Ridge 244.8 Oct 07, 2022 03:14 pm Dry 88.7°F None None 3 mph 8 mph N 33.8°F 43% 57.2°F > 1/2 mi
I 80 Mile Marker 249.1 249.1 Oct 07, 2022 03:14 pm N/A   None None 7 mph 13 mph NW 33.8°F 42% 57.2°F > 1/2 mi
I 80 Halleck Ridge 252.16 Oct 07, 2022 03:14 pm N/A   None None 7 mph 12 mph NE 33.8°F 41% 57.2°F > 1/2 mi
I 80 Elk Mountain 256.17 Oct 07, 2022 03:14 pm N/A   None None 5 mph 14 mph SW 33.8°F 38% 59.0°F > 1/2 mi
I 80 County Road 402 262 Oct 07, 2022 03:14 pm Dry 87.3°F None None 7 mph 16 mph NW 35.6°F 46% 55.4°F > 1/2 mi
I 80 Wagonhound 266.58 Oct 07, 2022 03:14 pm Dry 88.2°F None None 4 mph 11 mph NW 35.6°F 41% 59.0°F > 1/2 mi
I 80 Foote Creek 269.5 Oct 07, 2022 03:14 pm Dry 95.5°F None None 7 mph 11 mph SW 33.8°F 45% 55.4°F > 1/2 mi
I 80 Arlington 271.8 Oct 07, 2022 03:14 pm Dry 89.1°F None None 9 mph 15 mph E 35.6°F 46% 55.4°F > 1/2 mi
I 80 Arlington East 273.85 Oct 07, 2022 03:14 pm Dry 87.1°F None None 6 mph 11 mph N 35.6°F 49% 53.6°F > 1/2 mi
I 80 Cooper Cove 279.36 Oct 07, 2022 03:14 pm Dry 72.9°F None None 5 mph 14 mph NW 37.4°F 53% 53.6°F > 1/2 mi
I 80 Strouss Hill 283.75 Oct 07, 2022 03:14 pm N/A   None None 9 mph 13 mph SE 37.4°F 56% 51.8°F > 1/2 mi
I 80 Quealy Dome 289.5 Oct 07, 2022 03:14 pm N/A   None None 9 mph 14 mph N     53.6°F > 1/2 mi
I 80 Herrick Lane 297.66 Oct 07, 2022 03:14 pm Dry 72.3°F None None 5 mph 10 mph N 33.8°F 45% 55.4°F > 1/2 mi
I 80 Summit East 325.8 Oct 07, 2022 03:14 pm N/A   None None 8 mph 12 mph NE 37.4°F 70% 46.4°F > 1/2 mi
I 80 Vedauwoo 329.4 Oct 07, 2022 03:14 pm N/A   None None 11 mph 14 mph E 35.6°F 74% 44.6°F > 1/2 mi
I 80 Lone Tree 333.32 Oct 07, 2022 03:14 pm Dry 69.6°F None None 9 mph 12 mph E 37.4°F 73% 44.6°F > 1/2 mi
I 80 Buford East 336.1 Oct 07, 2022 03:14 pm Dry 66.2°F None None 7 mph 11 mph NE 37.4°F 82% 42.8°F > 1/2 mi
I 80 Remount Road 340.5 Oct 07, 2022 03:14 pm Dry 59.5°F None None 5 mph 7 mph NE 39.2°F 85% 42.8°F > 1/2 mi
I 80 Otto 347.69 Oct 07, 2022 03:14 pm Dry 51.8°F None None 0 mph 0 mph   39.2°F 85% 42.8°F > 1/2 mi
I 80 MP 353 353 Oct 07, 2022 03:14 pm Dry 60.1°F None None 4 mph 7 mph SE 39.2°F 78% 44.6°F > 1/2 mi
I 80 Cheyenne East 373 Oct 07, 2022 03:14 pm Dry 59.9°F None None 3 mph 6 mph SE 39.2°F 68% 48.2°F > 1/2 mi
I 90 Montana State Line .1 Oct 07, 2022 03:14 pm Trace Moisture 90.9°F None None 3 mph 6 mph E 41.0°F 48% 60.8°F > 1/2 mi
I 90 Pompey Creek 35.3 Oct 07, 2022 03:14 pm Dry 79.5°F None None 4 mph 8 mph NW 37.4°F 41% 62.6°F > 1/2 mi
I 90 Sheridan/Johnson County Line 41.33 Oct 07, 2022 03:14 pm Dry 80.8°F None None 6 mph 11 mph S 41.0°F 47% 60.8°F > 1/2 mi
I 90 Piney Creek Interchange 44.7 Oct 07, 2022 03:14 pm Dry 82.9°F None   2 mph 8 mph SW 41.0°F 49% 59.0°F  
I 90 Kearny Divide 45.33 Oct 07, 2022 03:14 pm N/A   None   5 mph 12 mph N 50.0°F 43% 53.6°F > 1/2 mi
I 90 Indian Creek Road 83.3 Oct 07, 2022 03:14 pm Dry 86.2°F None None 2 mph 7 mph NW 39.2°F 48% 59.0°F > 1/2 mi
I 90 Dead Horse 91.5 Jul 13, 2022 07:08 am                      
I 90 Mile Marker 108 108 Oct 07, 2022 03:14 pm Dry 92.7°F None None 4 mph 10 mph N 39.2°F 53% 57.2°F > 1/2 mi
I 90 Inyan Kara 170.5 Oct 07, 2022 03:14 pm Dry 79.2°F None   7 mph 10 mph W 33.8°F 39% 57.2°F  
I 90 Beulah 205.9 Oct 07, 2022 03:14 pm Dry 67.1°F None None 4 mph 10 mph E 42.8°F 65% 53.6°F > 1/2 mi
US 14 Ucross 27.83 Oct 07, 2022 03:14 pm Dry 86.9°F None None 0 mph 4 mph S 37.4°F 39% 62.6°F > 1/2 mi
US 14 Granite Pass 38.95 Oct 07, 2022 03:14 pm N/A   None None 12 mph 19 mph S 33.8°F 61% 46.4°F > 1/2 mi
US 16 Big Horn County Line 44.01 Oct 07, 2022 03:14 pm Dry 74.1°F None None 6 mph 10 mph S 37.4°F 73% 46.4°F > 1/2 mi
US 191 Farson 40.45 Oct 07, 2022 03:14 pm Dry 98.8°F None   4 mph 11 mph SW 32.0°F 27% 66.2°F  
US 191 Warren Bridge 119.9 Oct 07, 2022 03:14 pm Dry 82.2°F None None 11 mph 21 mph SW 30.2°F 28% 62.6°F > 1/2 mi
US 20 Natrona 30 Oct 07, 2022 03:14 pm N/A   None None 20 mph 26 mph SW 39.2°F 55% 53.6°F > 1/2 mi
US 20 Hiland 57.4 Oct 07, 2022 03:14 pm Dry 80.4°F None None 1 mph 7 mph E 41.0°F 64% 53.6°F > 1/2 mi
US 20 Van Tassell 57.85 Oct 07, 2022 03:14 pm Dry 67.5°F None None 3 mph 6 mph S 42.8°F 69% 51.8°F > 1/2 mi
US 26 Wind River Lake 26.05 Oct 07, 2022 03:14 pm Ice Warning 30.0°F None None 9 mph 12 mph N 26.6°F 38% 51.8°F > 1/2 mi
US 287 Pumpkin Vine 420.4 Oct 07, 2022 03:14 pm Dry 71.6°F None None 11 mph 15 mph S 37.4°F 91% 39.2°F > 1/2 mi
US 30 Sage Junction 34 Oct 07, 2022 03:14 pm Dry 86.0°F None None 4 mph 7 mph NW 28.4°F 22% 68.0°F > 1/2 mi
US 30 Nugget Canyon 39.7 Sep 27, 2021 12:52 pm                      
US 85 Gun Barrel 46.8 Oct 07, 2022 03:14 pm Dry 61.7°F None None 3 mph 6 mph SE 44.6°F 86% 48.2°F > 1/2 mi
US 85 Four Corners 247.2 Oct 07, 2022 03:14 pm Dry 75.6°F None None 7 mph 17 mph NW 37.4°F 66% 48.2°F > 1/2 mi
WY 120 Meeteetse 61.5 Oct 07, 2022 03:14 pm Dry 81.7°F None   6 mph 9 mph SE -0.4°F 9% 55.4°F > 1/2 mi
WY 210 Wildcat Trail 21.52 Oct 07, 2022 03:14 pm Dry 67.5°F None None 6 mph 11 mph NE 37.4°F 83% 42.8°F > 1/2 mi
WY 210 Hynds Lodge Road 24.55 Oct 07, 2022 03:14 pm N/A   None None 5 mph 8 mph NE 37.4°F 78% 44.6°F > 1/2 mi
WY 22 Teton Pass 11.2 Oct 07, 2022 03:14 pm Dry 82.4°F None None 1 mph 3 mph S 35.6°F 45% 57.2°F > 1/2 mi
WY 220 Pathfinder Hill 80.1 Oct 07, 2022 03:14 pm Wet 77.9°F None None 8 mph 14 mph N 39.2°F 58% 53.6°F > 1/2 mi
WY 230 Skyline 230 113.2 Oct 07, 2022 03:14 pm N/A   None                
WY 258 Outer Drive 13.77 Oct 07, 2022 03:14 pm Dry 76.5°F None None 9 mph 13 mph NE 39.2°F 53% 55.4°F > 1/2 mi
WY 28 New South Pass 41.4 Oct 07, 2022 03:14 pm Dry 69.3°F None None 8 mph 12 mph E 46.4°F 93% 48.2°F > 1/2 mi
WY 28 Lower Red Canyon 59.71 Oct 07, 2022 03:14 pm Dry 63.7°F None None 6 mph 11 mph N 42.8°F 78% 48.2°F > 1/2 mi
WY 296 Chief Joseph 32.96 Oct 07, 2022 03:14 pm N/A   None None 14 mph 19 mph N       > 1/2 mi
WY 372 Shute Creek 34 Oct 07, 2022 03:14 pm N/A   None None 6 mph 8 mph N   55%   > 1/2 mi
WY 387 Pine Tree Junction 131.79 Mar 28, 2022 05:12 pm                      
WY 487 Shirley Rim 37 Oct 07, 2022 03:14 pm Dry 87.1°F None None 1 mph 1 mph W 37.4°F 56% 53.6°F > 1/2 mi
WY 59 Belle Fourche 87 Oct 07, 2022 03:14 pm Dry 85.6°F None   6 mph 9 mph N 37.4°F 43% 59.0°F  
WY 789 Beaver Rim 48.1 Oct 07, 2022 03:14 pm     None None 11 mph 14 mph NW 33.8°F 45% 53.6°F > 1/2 mi

Contact Us
Copyright 2021 Disclaimer Privacy Policy Media